sensor_id;sensor_type;location;lat;lon;timestamp;pressure;altitude;pressure_sealevel;temperature
18704;BMP180;9481;48.796;9.210;2022-10-26T00:00:48;96582.00;;;20.10
18704;BMP180;9481;48.796;9.210;2022-10-26T00:03:15;96584.00;;;20.10
18704;BMP180;9481;48.796;9.210;2022-10-26T00:05:42;96594.00;;;20.10
18704;BMP180;9481;48.796;9.210;2022-10-26T00:08:08;96591.00;;;20.10
18704;BMP180;9481;48.796;9.210;2022-10-26T00:10:38;96604.00;;;20.00
18704;BMP180;9481;48.796;9.210;2022-10-26T00:13:08;96603.00;;;20.00
18704;BMP180;9481;48.796;9.210;2022-10-26T00:15:38;96611.00;;;20.00
18704;BMP180;9481;48.796;9.210;2022-10-26T00:18:04;96599.00;;;20.00
18704;BMP180;9481;48.796;9.210;2022-10-26T00:20:31;96606.00;;;20.00
18704;BMP180;9481;48.796;9.210;2022-10-26T00:22:57;96585.00;;;20.00
18704;BMP180;9481;48.796;9.210;2022-10-26T00:25:23;96591.00;;;20.00
18704;BMP180;9481;48.796;9.210;2022-10-26T00:27:48;96594.00;;;20.00
18704;BMP180;9481;48.796;9.210;2022-10-26T00:30:14;96586.00;;;20.00
18704;BMP180;9481;48.796;9.210;2022-10-26T00:32:40;96580.00;;;20.00
18704;BMP180;9481;48.796;9.210;2022-10-26T00:35:06;96584.00;;;20.00
18704;BMP180;9481;48.796;9.210;2022-10-26T00:37:31;96591.00;;;20.00
18704;BMP180;9481;48.796;9.210;2022-10-26T00:39:57;96579.00;;;20.00
18704;BMP180;9481;48.796;9.210;2022-10-26T00:42:23;96600.00;;;20.00
18704;BMP180;9481;48.796;9.210;2022-10-26T00:49:47;96593.00;;;20.00
18704;BMP180;9481;48.796;9.210;2022-10-26T00:52:16;96604.00;;;19.90
18704;BMP180;9481;48.796;9.210;2022-10-26T00:54:43;96595.00;;;20.00
18704;BMP180;9481;48.796;9.210;2022-10-26T00:57:11;96597.00;;;19.90
18704;BMP180;9481;48.796;9.210;2022-10-26T00:59:37;96587.00;;;20.00
18704;BMP180;9481;48.796;9.210;2022-10-26T01:02:03;96602.00;;;19.90
18704;BMP180;9481;48.796;9.210;2022-10-26T01:04:29;96582.00;;;19.90
18704;BMP180;9481;48.796;9.210;2022-10-26T01:06:55;96593.00;;;20.00
18704;BMP180;9481;48.796;9.210;2022-10-26T01:09:21;96597.00;;;20.00
18704;BMP180;9481;48.796;9.210;2022-10-26T01:11:47;96595.00;;;20.00
18704;BMP180;9481;48.796;9.210;2022-10-26T01:14:17;96592.00;;;19.90
18704;BMP180;9481;48.796;9.210;2022-10-26T01:22:57;96581.00;;;19.90
18704;BMP180;9481;48.796;9.210;2022-10-26T01:31:44;96575.00;;;19.90
18704;BMP180;9481;48.796;9.210;2022-10-26T01:34:33;96554.00;;;19.90
18704;BMP180;9481;48.796;9.210;2022-10-26T01:37:15;96548.00;;;19.90
18704;BMP180;9481;48.796;9.210;2022-10-26T01:39:54;96548.00;;;19.90
18704;BMP180;9481;48.796;9.210;2022-10-26T01:42:26;96554.00;;;20.00
18704;BMP180;9481;48.796;9.210;2022-10-26T01:45:01;96539.00;;;20.00
18704;BMP180;9481;48.796;9.210;2022-10-26T01:47:32;96558.00;;;20.00
18704;BMP180;9481;48.796;9.210;2022-10-26T01:50:01;96549.00;;;20.00
18704;BMP180;9481;48.796;9.210;2022-10-26T01:52:28;96544.00;;;20.00
18704;BMP180;9481;48.796;9.210;2022-10-26T01:55:37;96558.00;;;20.00
18704;BMP180;9481;48.796;9.210;2022-10-26T01:57:51;96563.00;;;20.00
18704;BMP180;9481;48.796;9.210;2022-10-26T02:00:17;96560.00;;;20.00
18704;BMP180;9481;48.796;9.210;2022-10-26T02:11:39;96542.00;;;19.90
18704;BMP180;9481;48.796;9.210;2022-10-26T02:14:27;96534.00;;;19.90
18704;BMP180;9481;48.796;9.210;2022-10-26T02:17:09;96532.00;;;19.90
18704;BMP180;9481;48.796;9.210;2022-10-26T02:19:45;96530.00;;;19.90
18704;BMP180;9481;48.796;9.210;2022-10-26T02:22:23;96541.00;;;19.90
18704;BMP180;9481;48.796;9.210;2022-10-26T02:24:52;96554.00;;;19.90
18704;BMP180;9481;48.796;9.210;2022-10-26T02:27:26;96551.00;;;19.90
18704;BMP180;9481;48.796;9.210;2022-10-26T02:29:55;96560.00;;;19.90
18704;BMP180;9481;48.796;9.210;2022-10-26T02:32:26;96542.00;;;19.90
18704;BMP180;9481;48.796;9.210;2022-10-26T02:34:56;96566.00;;;19.80
18704;BMP180;9481;48.796;9.210;2022-10-26T02:37:24;96566.00;;;19.80
18704;BMP180;9481;48.796;9.210;2022-10-26T02:39:53;96560.00;;;19.80
18704;BMP180;9481;48.796;9.210;2022-10-26T02:42:21;96579.00;;;19.70
18704;BMP180;9481;48.796;9.210;2022-10-26T02:45:02;96565.00;;;19.70
18704;BMP180;9481;48.796;9.210;2022-10-26T02:47:31;96552.00;;;19.70
18704;BMP180;9481;48.796;9.210;2022-10-26T02:49:58;96558.00;;;19.70
18704;BMP180;9481;48.796;9.210;2022-10-26T02:52:54;96564.00;;;19.60
18704;BMP180;9481;48.796;9.210;2022-10-26T02:55:29;96566.00;;;19.60
18704;BMP180;9481;48.796;9.210;2022-10-26T02:58:03;96577.00;;;19.60
18704;BMP180;9481;48.796;9.210;2022-10-26T03:00:31;96573.00;;;19.60
18704;BMP180;9481;48.796;9.210;2022-10-26T03:02:58;96572.00;;;19.60
18704;BMP180;9481;48.796;9.210;2022-10-26T03:05:31;96559.00;;;19.60
18704;BMP180;9481;48.796;9.210;2022-10-26T03:08:01;96575.00;;;19.60
18704;BMP180;9481;48.796;9.210;2022-10-26T03:10:27;96573.00;;;19.60
18704;BMP180;9481;48.796;9.210;2022-10-26T03:12:53;96561.00;;;19.60
18704;BMP180;9481;48.796;9.210;2022-10-26T03:15:19;96575.00;;;19.60
18704;BMP180;9481;48.796;9.210;2022-10-26T03:17:45;96586.00;;;19.60
18704;BMP180;9481;48.796;9.210;2022-10-26T03:20:12;96582.00;;;19.60
18704;BMP180;9481;48.796;9.210;2022-10-26T03:22:37;96595.00;;;19.60
18704;BMP180;9481;48.796;9.210;2022-10-26T03:25:04;96608.00;;;19.60
18704;BMP180;9481;48.796;9.210;2022-10-26T03:27:29;96596.00;;;19.60
18704;BMP180;9481;48.796;9.210;2022-10-26T03:29:55;96606.00;;;19.60
18704;BMP180;9481;48.796;9.210;2022-10-26T03:32:22;96596.00;;;19.60
18704;BMP180;9481;48.796;9.210;2022-10-26T03:34:47;96615.00;;;19.60
18704;BMP180;9481;48.796;9.210;2022-10-26T03:37:13;96635.00;;;19.60
18704;BMP180;9481;48.796;9.210;2022-10-26T03:39:39;96628.00;;;19.50
18704;BMP180;9481;48.796;9.210;2022-10-26T03:42:04;96628.00;;;19.50
18704;BMP180;9481;48.796;9.210;2022-10-26T03:44:30;96620.00;;;19.50
18704;BMP180;9481;48.796;9.210;2022-10-26T03:46:56;96611.00;;;19.40
18704;BMP180;9481;48.796;9.210;2022-10-26T03:49:21;96629.00;;;19.40
18704;BMP180;9481;48.796;9.210;2022-10-26T03:51:47;96614.00;;;19.40
18704;BMP180;9481;48.796;9.210;2022-10-26T03:54:13;96632.00;;;19.40
18704;BMP180;9481;48.796;9.210;2022-10-26T03:56:38;96613.00;;;19.30
18704;BMP180;9481;48.796;9.210;2022-10-26T03:59:04;96613.00;;;19.30
18704;BMP180;9481;48.796;9.210;2022-10-26T04:01:30;96606.00;;;19.40
18704;BMP180;9481;48.796;9.210;2022-10-26T04:03:55;96608.00;;;19.40
18704;BMP180;9481;48.796;9.210;2022-10-26T04:06:21;96602.00;;;19.40
18704;BMP180;9481;48.796;9.210;2022-10-26T04:08:46;96593.00;;;19.40
18704;BMP180;9481;48.796;9.210;2022-10-26T04:11:12;96579.00;;;19.40
18704;BMP180;9481;48.796;9.210;2022-10-26T04:13:38;96578.00;;;19.40
18704;BMP180;9481;48.796;9.210;2022-10-26T04:16:04;96562.00;;;19.40
18704;BMP180;9481;48.796;9.210;2022-10-26T04:18:29;96562.00;;;19.50
18704;BMP180;9481;48.796;9.210;2022-10-26T04:20:55;96567.00;;;19.50
18704;BMP180;9481;48.796;9.210;2022-10-26T04:23:24;96599.00;;;19.50
18704;BMP180;9481;48.796;9.210;2022-10-26T04:25:50;96598.00;;;19.50
18704;BMP180;9481;48.796;9.210;2022-10-26T04:28:16;96593.00;;;19.50
18704;BMP180;9481;48.796;9.210;2022-10-26T04:30:41;96589.00;;;19.50
18704;BMP180;9481;48.796;9.210;2022-10-26T04:33:07;96588.00;;;19.50
18704;BMP180;9481;48.796;9.210;2022-10-26T04:35:33;96595.00;;;19.40
18704;BMP180;9481;48.796;9.210;2022-10-26T04:38:02;96608.00;;;19.40
18704;BMP180;9481;48.796;9.210;2022-10-26T04:40:30;96617.00;;;19.40
18704;BMP180;9481;48.796;9.210;2022-10-26T04:42:57;96597.00;;;19.40
18704;BMP180;9481;48.796;9.210;2022-10-26T04:45:23;96593.00;;;19.40
18704;BMP180;9481;48.796;9.210;2022-10-26T04:48:06;96586.00;;;19.30
18704;BMP180;9481;48.796;9.210;2022-10-26T04:50:32;96585.00;;;19.30
18704;BMP180;9481;48.796;9.210;2022-10-26T04:52:58;96588.00;;;19.30
18704;BMP180;9481;48.796;9.210;2022-10-26T04:55:24;96591.00;;;19.30
18704;BMP180;9481;48.796;9.210;2022-10-26T04:57:49;96587.00;;;19.30
18704;BMP180;9481;48.796;9.210;2022-10-26T05:00:15;96590.00;;;19.30
18704;BMP180;9481;48.796;9.210;2022-10-26T05:02:41;96585.00;;;19.30
18704;BMP180;9481;48.796;9.210;2022-10-26T05:05:07;96579.00;;;19.30
18704;BMP180;9481;48.796;9.210;2022-10-26T05:07:33;96586.00;;;19.30
18704;BMP180;9481;48.796;9.210;2022-10-26T05:09:58;96602.00;;;19.30
18704;BMP180;9481;48.796;9.210;2022-10-26T05:12:24;96596.00;;;19.30
18704;BMP180;9481;48.796;9.210;2022-10-26T05:14:49;96585.00;;;19.30
18704;BMP180;9481;48.796;9.210;2022-10-26T05:17:15;96597.00;;;19.30
18704;BMP180;9481;48.796;9.210;2022-10-26T05:19:41;96591.00;;;19.30
18704;BMP180;9481;48.796;9.210;2022-10-26T05:22:07;96581.00;;;19.30
18704;BMP180;9481;48.796;9.210;2022-10-26T05:24:32;96603.00;;;19.30
18704;BMP180;9481;48.796;9.210;2022-10-26T05:26:58;96605.00;;;19.30
18704;BMP180;9481;48.796;9.210;2022-10-26T05:29:24;96605.00;;;19.20
18704;BMP180;9481;48.796;9.210;2022-10-26T05:31:50;96616.00;;;19.30
18704;BMP180;9481;48.796;9.210;2022-10-26T05:34:16;96614.00;;;19.30
18704;BMP180;9481;48.796;9.210;2022-10-26T05:36:42;96618.00;;;19.30
18704;BMP180;9481;48.796;9.210;2022-10-26T05:39:07;96599.00;;;19.30
18704;BMP180;9481;48.796;9.210;2022-10-26T05:41:33;96605.00;;;19.30
18704;BMP180;9481;48.796;9.210;2022-10-26T05:43:59;96609.00;;;19.30
18704;BMP180;9481;48.796;9.210;2022-10-26T05:46:24;96616.00;;;19.30
18704;BMP180;9481;48.796;9.210;2022-10-26T05:48:50;96615.00;;;19.30
18704;BMP180;9481;48.796;9.210;2022-10-26T05:51:16;96615.00;;;19.30
18704;BMP180;9481;48.796;9.210;2022-10-26T05:53:41;96612.00;;;19.30
18704;BMP180;9481;48.796;9.210;2022-10-26T05:56:38;96626.00;;;19.20
18704;BMP180;9481;48.796;9.210;2022-10-26T05:59:12;96623.00;;;19.30
18704;BMP180;9481;48.796;9.210;2022-10-26T06:04:43;96626.00;;;19.30
18704;BMP180;9481;48.796;9.210;2022-10-26T06:07:21;96635.00;;;19.30
18704;BMP180;9481;48.796;9.210;2022-10-26T06:09:48;96635.00;;;19.40
18704;BMP180;9481;48.796;9.210;2022-10-26T06:12:14;96639.00;;;19.40
18704;BMP180;9481;48.796;9.210;2022-10-26T06:14:41;96650.00;;;19.40
18704;BMP180;9481;48.796;9.210;2022-10-26T06:20:42;96671.00;;;19.40
18704;BMP180;9481;48.796;9.210;2022-10-26T06:23:42;96669.00;;;19.40
18704;BMP180;9481;48.796;9.210;2022-10-26T06:26:30;96689.00;;;19.40
18704;BMP180;9481;48.796;9.210;2022-10-26T06:29:31;96684.00;;;19.40
18704;BMP180;9481;48.796;9.210;2022-10-26T06:32:01;96696.00;;;19.40
18704;BMP180;9481;48.796;9.210;2022-10-26T06:34:33;96697.00;;;19.50
18704;BMP180;9481;48.796;9.210;2022-10-26T06:37:00;96685.00;;;19.50
18704;BMP180;9481;48.796;9.210;2022-10-26T06:39:30;96686.00;;;19.50
18704;BMP180;9481;48.796;9.210;2022-10-26T06:42:00;96697.00;;;19.60
18704;BMP180;9481;48.796;9.210;2022-10-26T06:44:26;96695.00;;;19.60
18704;BMP180;9481;48.796;9.210;2022-10-26T06:47:21;96706.00;;;19.50
18704;BMP180;9481;48.796;9.210;2022-10-26T06:50:24;96704.00;;;19.50
18704;BMP180;9481;48.796;9.210;2022-10-26T06:55:49;96709.00;;;19.50
18704;BMP180;9481;48.796;9.210;2022-10-26T06:58:19;96703.00;;;19.50
18704;BMP180;9481;48.796;9.210;2022-10-26T07:00:48;96714.00;;;19.50
18704;BMP180;9481;48.796;9.210;2022-10-26T07:03:15;96713.00;;;19.60
18704;BMP180;9481;48.796;9.210;2022-10-26T07:05:42;96728.00;;;19.60
18704;BMP180;9481;48.796;9.210;2022-10-26T07:08:08;96720.00;;;19.60
18704;BMP180;9481;48.796;9.210;2022-10-26T07:10:33;96728.00;;;19.60
18704;BMP180;9481;48.796;9.210;2022-10-26T07:13:07;96715.00;;;19.60
18704;BMP180;9481;48.796;9.210;2022-10-26T07:15:34;96720.00;;;19.60
18704;BMP180;9481;48.796;9.210;2022-10-26T07:18:02;96729.00;;;19.60
18704;BMP180;9481;48.796;9.210;2022-10-26T07:20:31;96740.00;;;19.70
18704;BMP180;9481;48.796;9.210;2022-10-26T07:22:57;96731.00;;;19.70
18704;BMP180;9481;48.796;9.210;2022-10-26T07:25:25;96744.00;;;19.70
18704;BMP180;9481;48.796;9.210;2022-10-26T07:27:51;96742.00;;;19.80
18704;BMP180;9481;48.796;9.210;2022-10-26T07:30:17;96754.00;;;19.80
18704;BMP180;9481;48.796;9.210;2022-10-26T07:32:43;96752.00;;;19.80
18704;BMP180;9481;48.796;9.210;2022-10-26T07:35:09;96744.00;;;19.80
18704;BMP180;9481;48.796;9.210;2022-10-26T07:37:35;96752.00;;;19.80
18704;BMP180;9481;48.796;9.210;2022-10-26T07:40:00;96762.00;;;19.80
18704;BMP180;9481;48.796;9.210;2022-10-26T07:42:26;96763.00;;;19.80
18704;BMP180;9481;48.796;9.210;2022-10-26T07:44:52;96770.00;;;19.80
18704;BMP180;9481;48.796;9.210;2022-10-26T07:47:18;96773.00;;;19.80
18704;BMP180;9481;48.796;9.210;2022-10-26T07:49:43;96768.00;;;19.80
18704;BMP180;9481;48.796;9.210;2022-10-26T07:52:09;96776.00;;;19.80
18704;BMP180;9481;48.796;9.210;2022-10-26T07:54:36;96780.00;;;19.80
18704;BMP180;9481;48.796;9.210;2022-10-26T07:57:02;96779.00;;;19.90
18704;BMP180;9481;48.796;9.210;2022-10-26T07:59:28;96779.00;;;19.90
18704;BMP180;9481;48.796;9.210;2022-10-26T08:01:53;96775.00;;;19.90
18704;BMP180;9481;48.796;9.210;2022-10-26T08:04:19;96782.00;;;19.90
18704;BMP180;9481;48.796;9.210;2022-10-26T08:06:45;96773.00;;;20.00
18704;BMP180;9481;48.796;9.210;2022-10-26T08:09:11;96783.00;;;20.00
18704;BMP180;9481;48.796;9.210;2022-10-26T08:11:37;96781.00;;;20.00
18704;BMP180;9481;48.796;9.210;2022-10-26T08:14:04;96783.00;;;20.00
18704;BMP180;9481;48.796;9.210;2022-10-26T08:16:29;96774.00;;;20.00
18704;BMP180;9481;48.796;9.210;2022-10-26T08:18:56;96783.00;;;20.00
18704;BMP180;9481;48.796;9.210;2022-10-26T08:21:22;96778.00;;;20.10
18704;BMP180;9481;48.796;9.210;2022-10-26T08:23:47;96781.00;;;20.10
18704;BMP180;9481;48.796;9.210;2022-10-26T08:26:13;96781.00;;;20.10
18704;BMP180;9481;48.796;9.210;2022-10-26T08:28:39;96781.00;;;20.20
18704;BMP180;9481;48.796;9.210;2022-10-26T08:31:06;96785.00;;;20.20
18704;BMP180;9481;48.796;9.210;2022-10-26T08:33:32;96773.00;;;20.20
18704;BMP180;9481;48.796;9.210;2022-10-26T08:36:02;96789.00;;;20.20
18704;BMP180;9481;48.796;9.210;2022-10-26T08:38:28;96787.00;;;20.20
18704;BMP180;9481;48.796;9.210;2022-10-26T08:40:56;96792.00;;;20.30
18704;BMP180;9481;48.796;9.210;2022-10-26T08:43:32;96802.00;;;20.20
18704;BMP180;9481;48.796;9.210;2022-10-26T08:46:12;96805.00;;;20.20
18704;BMP180;9481;48.796;9.210;2022-10-26T08:48:45;96795.00;;;20.30
18704;BMP180;9481;48.796;9.210;2022-10-26T08:51:24;96803.00;;;20.30
18704;BMP180;9481;48.796;9.210;2022-10-26T08:56:28;96821.00;;;20.30
18704;BMP180;9481;48.796;9.210;2022-10-26T08:59:11;96820.00;;;20.30
18704;BMP180;9481;48.796;9.210;2022-10-26T09:01:38;96814.00;;;20.40
18704;BMP180;9481;48.796;9.210;2022-10-26T09:04:11;96808.00;;;20.40
18704;BMP180;9481;48.796;9.210;2022-10-26T09:07:52;96817.00;;;20.40
18704;BMP180;9481;48.796;9.210;2022-10-26T09:10:34;96822.00;;;20.40
18704;BMP180;9481;48.796;9.210;2022-10-26T09:19:33;96832.00;;;20.60
18704;BMP180;9481;48.796;9.210;2022-10-26T09:24:56;96838.00;;;20.80
18704;BMP180;9481;48.796;9.210;2022-10-26T09:27:28;96842.00;;;20.90
18704;BMP180;9481;48.796;9.210;2022-10-26T09:30:17;96841.00;;;21.00
18704;BMP180;9481;48.796;9.210;2022-10-26T09:33:11;96838.00;;;21.10
18704;BMP180;9481;48.796;9.210;2022-10-26T09:35:49;96857.00;;;21.30
18704;BMP180;9481;48.796;9.210;2022-10-26T09:40:57;96865.00;;;21.60
18704;BMP180;9481;48.796;9.210;2022-10-26T09:46:04;96863.00;;;22.00
18704;BMP180;9481;48.796;9.210;2022-10-26T09:48:38;96862.00;;;22.10
18704;BMP180;9481;48.796;9.210;2022-10-26T09:51:06;96866.00;;;22.30
18704;BMP180;9481;48.796;9.210;2022-10-26T09:53:32;96867.00;;;22.40
18704;BMP180;9481;48.796;9.210;2022-10-26T09:56:06;96860.00;;;22.40
18704;BMP180;9481;48.796;9.210;2022-10-26T09:58:42;96872.00;;;22.50
18704;BMP180;9481;48.796;9.210;2022-10-26T10:01:30;96875.00;;;22.50
18704;BMP180;9481;48.796;9.210;2022-10-26T10:06:50;96871.00;;;22.70
18704;BMP180;9481;48.796;9.210;2022-10-26T10:09:23;96871.00;;;22.70
18704;BMP180;9481;48.796;9.210;2022-10-26T10:11:58;96865.00;;;22.70
18704;BMP180;9481;48.796;9.210;2022-10-26T10:14:33;96885.00;;;22.70
18704;BMP180;9481;48.796;9.210;2022-10-26T10:17:14;96871.00;;;22.70
18704;BMP180;9481;48.796;9.210;2022-10-26T10:19:43;96879.00;;;22.70
18704;BMP180;9481;48.796;9.210;2022-10-26T10:22:20;96884.00;;;22.70
18704;BMP180;9481;48.796;9.210;2022-10-26T10:24:58;96893.00;;;22.70
18704;BMP180;9481;48.796;9.210;2022-10-26T10:27:25;96898.00;;;22.70
18704;BMP180;9481;48.796;9.210;2022-10-26T10:29:55;96892.00;;;22.80
18704;BMP180;9481;48.796;9.210;2022-10-26T10:32:29;96901.00;;;22.80
18704;BMP180;9481;48.796;9.210;2022-10-26T10:34:59;96905.00;;;22.90
18704;BMP180;9481;48.796;9.210;2022-10-26T10:37:40;96900.00;;;23.10
18704;BMP180;9481;48.796;9.210;2022-10-26T10:40:20;96894.00;;;23.30
18704;BMP180;9481;48.796;9.210;2022-10-26T10:42:49;96902.00;;;23.60
18704;BMP180;9481;48.796;9.210;2022-10-26T10:45:26;96905.00;;;23.80
18704;BMP180;9481;48.796;9.210;2022-10-26T10:48:11;96912.00;;;24.00
18704;BMP180;9481;48.796;9.210;2022-10-26T10:51:00;96908.00;;;24.00
18704;BMP180;9481;48.796;9.210;2022-10-26T10:53:37;96900.00;;;24.10
18704;BMP180;9481;48.796;9.210;2022-10-26T10:56:39;96902.00;;;24.20
18704;BMP180;9481;48.796;9.210;2022-10-26T11:04:50;96919.00;;;24.50
18704;BMP180;9481;48.796;9.210;2022-10-26T11:07:20;96912.00;;;24.90
18704;BMP180;9481;48.796;9.210;2022-10-26T11:09:49;96924.00;;;25.50
18704;BMP180;9481;48.796;9.210;2022-10-26T11:12:25;96916.00;;;26.40
18704;BMP180;9481;48.796;9.210;2022-10-26T11:15:06;96927.00;;;27.40
18704;BMP180;9481;48.796;9.210;2022-10-26T11:17:57;96929.00;;;28.10
18704;BMP180;9481;48.796;9.210;2022-10-26T11:20:27;96928.00;;;28.20
18704;BMP180;9481;48.796;9.210;2022-10-26T11:23:10;96934.00;;;27.90
18704;BMP180;9481;48.796;9.210;2022-10-26T11:25:48;96922.00;;;27.50
18704;BMP180;9481;48.796;9.210;2022-10-26T11:31:04;96929.00;;;26.80
18704;BMP180;9481;48.796;9.210;2022-10-26T11:33:39;96924.00;;;26.50
18704;BMP180;9481;48.796;9.210;2022-10-26T11:36:15;96922.00;;;26.30
18704;BMP180;9481;48.796;9.210;2022-10-26T11:38:51;96924.00;;;26.30
18704;BMP180;9481;48.796;9.210;2022-10-26T11:44:16;96928.00;;;26.10
18704;BMP180;9481;48.796;9.210;2022-10-26T11:46:50;96934.00;;;26.00
18704;BMP180;9481;48.796;9.210;2022-10-26T11:49:35;96936.00;;;25.90
18704;BMP180;9481;48.796;9.210;2022-10-26T11:52:48;96934.00;;;25.80
18704;BMP180;9481;48.796;9.210;2022-10-26T11:55:17;96941.00;;;25.90
18704;BMP180;9481;48.796;9.210;2022-10-26T11:57:44;96939.00;;;25.90
18704;BMP180;9481;48.796;9.210;2022-10-26T12:00:19;96947.00;;;26.30
18704;BMP180;9481;48.796;9.210;2022-10-26T12:02:57;96946.00;;;27.00
18704;BMP180;9481;48.796;9.210;2022-10-26T12:05:50;96947.00;;;27.30
18704;BMP180;9481;48.796;9.210;2022-10-26T12:08:37;96958.00;;;27.50
18704;BMP180;9481;48.796;9.210;2022-10-26T12:14:03;96952.00;;;27.30
18704;BMP180;9481;48.796;9.210;2022-10-26T12:17:01;96952.00;;;27.00
18704;BMP180;9481;48.796;9.210;2022-10-26T12:19:49;96956.00;;;26.70
18704;BMP180;9481;48.796;9.210;2022-10-26T12:22:27;96953.00;;;26.50
18704;BMP180;9481;48.796;9.210;2022-10-26T12:30:22;96971.00;;;26.00
18704;BMP180;9481;48.796;9.210;2022-10-26T12:32:53;96958.00;;;25.90
18704;BMP180;9481;48.796;9.210;2022-10-26T12:35:36;96972.00;;;25.70
18704;BMP180;9481;48.796;9.210;2022-10-26T12:41:23;96958.00;;;25.40
18704;BMP180;9481;48.796;9.210;2022-10-26T12:43:54;96967.00;;;25.30
18704;BMP180;9481;48.796;9.210;2022-10-26T12:48:47;96964.00;;;25.20
18704;BMP180;9481;48.796;9.210;2022-10-26T12:57:08;96979.00;;;25.50
18704;BMP180;9481;48.796;9.210;2022-10-26T12:59:49;96976.00;;;25.70
18704;BMP180;9481;48.796;9.210;2022-10-26T13:05:45;96988.00;;;25.80
18704;BMP180;9481;48.796;9.210;2022-10-26T13:08:19;96986.00;;;26.00
18704;BMP180;9481;48.796;9.210;2022-10-26T13:11:05;96986.00;;;26.20
18704;BMP180;9481;48.796;9.210;2022-10-26T13:13:34;96982.00;;;26.50
18704;BMP180;9481;48.796;9.210;2022-10-26T13:16:01;96986.00;;;26.60
18704;BMP180;9481;48.796;9.210;2022-10-26T13:18:29;96983.00;;;26.60
18704;BMP180;9481;48.796;9.210;2022-10-26T13:21:13;96984.00;;;26.90
18704;BMP180;9481;48.796;9.210;2022-10-26T13:23:47;96990.00;;;27.80
18704;BMP180;9481;48.796;9.210;2022-10-26T13:26:28;96998.00;;;29.00
18704;BMP180;9481;48.796;9.210;2022-10-26T13:29:00;96999.00;;;30.10
18704;BMP180;9481;48.796;9.210;2022-10-26T13:34:09;97001.00;;;32.20
18704;BMP180;9481;48.796;9.210;2022-10-26T13:39:30;97005.00;;;33.90
18704;BMP180;9481;48.796;9.210;2022-10-26T13:41:59;97006.00;;;34.40
18704;BMP180;9481;48.796;9.210;2022-10-26T13:44:29;97008.00;;;34.80
18704;BMP180;9481;48.796;9.210;2022-10-26T13:47:04;97018.00;;;35.30
18704;BMP180;9481;48.796;9.210;2022-10-26T13:49:42;97014.00;;;35.70
18704;BMP180;9481;48.796;9.210;2022-10-26T13:52:40;97017.00;;;36.00
18704;BMP180;9481;48.796;9.210;2022-10-26T13:55:22;97021.00;;;36.30
18704;BMP180;9481;48.796;9.210;2022-10-26T14:00:34;97019.00;;;36.30
18704;BMP180;9481;48.796;9.210;2022-10-26T14:03:21;97021.00;;;36.00
18704;BMP180;9481;48.796;9.210;2022-10-26T14:05:49;97020.00;;;35.40
18704;BMP180;9481;48.796;9.210;2022-10-26T14:08:18;97024.00;;;34.60
18704;BMP180;9481;48.796;9.210;2022-10-26T14:10:52;97034.00;;;33.70
18704;BMP180;9481;48.796;9.210;2022-10-26T14:13:23;97036.00;;;32.90
18704;BMP180;9481;48.796;9.210;2022-10-26T14:15:55;97032.00;;;32.20
18704;BMP180;9481;48.796;9.210;2022-10-26T14:18:29;97030.00;;;31.50
18704;BMP180;9481;48.796;9.210;2022-10-26T14:21:03;97040.00;;;30.80
18704;BMP180;9481;48.796;9.210;2022-10-26T14:23:36;97036.00;;;30.20
18704;BMP180;9481;48.796;9.210;2022-10-26T14:26:29;97034.00;;;29.60
18704;BMP180;9481;48.796;9.210;2022-10-26T14:28:59;97041.00;;;29.20
18704;BMP180;9481;48.796;9.210;2022-10-26T14:31:29;97042.00;;;28.70
18704;BMP180;9481;48.796;9.210;2022-10-26T14:33:57;97050.00;;;28.30
18704;BMP180;9481;48.796;9.210;2022-10-26T14:36:33;97047.00;;;27.90
18704;BMP180;9481;48.796;9.210;2022-10-26T14:39:13;97045.00;;;27.60
18704;BMP180;9481;48.796;9.210;2022-10-26T14:41:42;97044.00;;;27.30
18704;BMP180;9481;48.796;9.210;2022-10-26T14:44:19;97055.00;;;27.10
18704;BMP180;9481;48.796;9.210;2022-10-26T14:46:46;97051.00;;;26.90
18704;BMP180;9481;48.796;9.210;2022-10-26T14:49:43;97062.00;;;26.60
18704;BMP180;9481;48.796;9.210;2022-10-26T14:52:17;97061.00;;;26.50
18704;BMP180;9481;48.796;9.210;2022-10-26T14:54:57;97056.00;;;26.30
18704;BMP180;9481;48.796;9.210;2022-10-26T14:57:34;97063.00;;;26.20
18704;BMP180;9481;48.796;9.210;2022-10-26T15:02:46;97062.00;;;26.00
18704;BMP180;9481;48.796;9.210;2022-10-26T15:05:27;97068.00;;;25.90
18704;BMP180;9481;48.796;9.210;2022-10-26T15:07:55;97070.00;;;25.80
18704;BMP180;9481;48.796;9.210;2022-10-26T15:13:30;97067.00;;;25.60
18704;BMP180;9481;48.796;9.210;2022-10-26T15:16:10;97059.00;;;25.50
18704;BMP180;9481;48.796;9.210;2022-10-26T15:18:41;97071.00;;;25.50
18704;BMP180;9481;48.796;9.210;2022-10-26T15:21:26;97075.00;;;25.40
18704;BMP180;9481;48.796;9.210;2022-10-26T15:23:55;97079.00;;;25.40
18704;BMP180;9481;48.796;9.210;2022-10-26T15:26:23;97071.00;;;25.30
18704;BMP180;9481;48.796;9.210;2022-10-26T15:28:49;97077.00;;;25.20
18704;BMP180;9481;48.796;9.210;2022-10-26T15:36:30;97094.00;;;25.00
18704;BMP180;9481;48.796;9.210;2022-10-26T15:38:57;97093.00;;;25.00
18704;BMP180;9481;48.796;9.210;2022-10-26T15:41:32;97082.00;;;24.90
18704;BMP180;9481;48.796;9.210;2022-10-26T15:44:03;97099.00;;;24.90
18704;BMP180;9481;48.796;9.210;2022-10-26T15:46:35;97094.00;;;24.80
18704;BMP180;9481;48.796;9.210;2022-10-26T15:49:05;97105.00;;;24.80
18704;BMP180;9481;48.796;9.210;2022-10-26T15:51:32;97097.00;;;24.80
18704;BMP180;9481;48.796;9.210;2022-10-26T15:54:02;97110.00;;;24.70
18704;BMP180;9481;48.796;9.210;2022-10-26T15:56:29;97106.00;;;24.70
18704;BMP180;9481;48.796;9.210;2022-10-26T15:58:56;97095.00;;;24.60
18704;BMP180;9481;48.796;9.210;2022-10-26T16:01:25;97105.00;;;24.50
18704;BMP180;9481;48.796;9.210;2022-10-26T16:03:52;97105.00;;;24.50
18704;BMP180;9481;48.796;9.210;2022-10-26T16:06:27;97111.00;;;24.40
18704;BMP180;9481;48.796;9.210;2022-10-26T16:09:01;97109.00;;;24.30
18704;BMP180;9481;48.796;9.210;2022-10-26T16:11:28;97095.00;;;24.30
18704;BMP180;9481;48.796;9.210;2022-10-26T16:13:54;97099.00;;;24.20
18704;BMP180;9481;48.796;9.210;2022-10-26T16:16:20;97109.00;;;24.10
18704;BMP180;9481;48.796;9.210;2022-10-26T16:18:54;97115.00;;;24.00
18704;BMP180;9481;48.796;9.210;2022-10-26T16:21:21;97116.00;;;24.00
18704;BMP180;9481;48.796;9.210;2022-10-26T16:23:52;97110.00;;;23.90
18704;BMP180;9481;48.796;9.210;2022-10-26T16:26:19;97116.00;;;23.90
18704;BMP180;9481;48.796;9.210;2022-10-26T16:28:45;97128.00;;;23.80
18704;BMP180;9481;48.796;9.210;2022-10-26T16:31:14;97118.00;;;23.70
18704;BMP180;9481;48.796;9.210;2022-10-26T16:33:40;97133.00;;;23.70
18704;BMP180;9481;48.796;9.210;2022-10-26T16:36:07;97136.00;;;23.60